Eurika — LYRZ — position and weather

sailwx.info

Track history (hours):
 
Tides and Currents Weather Stations Pressure Air Temp Water Temp Dewpoint Dewpoint Depression Visibility Wind Speed Wind Dir Waves Ship Positions

Eurika

Last reported at 2016-Apr-23 15:26 UTC. Time now 2016-May-01 21:19 UTC.
Position N 43°23' E 004°48'.
Warning: this ship's position is 8 days out of date.

Length 79 m; draft 3.2 m.

MMSI: 277335000.

Date/timePositionNaut miles runAvg speedWind from/ knotsBaromVisibWave heightAir tempDewpointWater temp
2016-Apr-23 15:26N 43°23' E 004°48'1 0.6
2016-Apr-23 13:33N 43°23' E 004°50'6 6.4
2016-Apr-23 12:33N 43°22' E 004°59'  
2016-Apr-20 12:33N 38°23' E 015°42'8 7.7
2016-Apr-20 11:33N 38°15' E 015°40'6 6.3
2016-Apr-20 10:33N 38°09' E 015°37'7 7.1
2016-Apr-20 09:33N 38°02' E 015°36'240 8.3
2016-Apr-19 04:32N 38°01' E 020°41'9 8.8
2016-Apr-19 03:27N 38°02' E 020°53'9 9.3
2016-Apr-19 02:32N 38°06' E 021°03'9 9.2
2016-Apr-19 01:33N 38°10' E 021°14'9 8.7
2016-Apr-19 00:32N 38°14' E 021°23'4 0.1
2016-Apr-17 12:28N 38°15' E 021°28'9 9.6
2016-Apr-17 11:33N 38°12' E 021°17'11 9.2
2016-Apr-17 10:24N 38°07' E 021°05'8 9.1
2016-Apr-17 09:33N 38°03' E 020°57'9 9.0
2016-Apr-17 08:33N 37°60' E 020°47'243 9.3
2016-Apr-16 06:21N 37°57' E 015°38'8 9.7
2016-Apr-16 05:33N 38°04' E 015°35'9 9.4
2016-Apr-16 04:33N 38°14' E 015°36'6 5.9
2016-Apr-16 03:33N 38°20' E 015°35'9 9.5
2016-Apr-16 02:33N 38°24' E 015°24'92 9.0
2016-Apr-15 16:25N 39°11' E 013°43'  
Track history (hours):
 
Tides and Currents Weather Stations Pressure Air Temp Water Temp Dewpoint Dewpoint Depression Visibility Wind Speed Wind Dir Waves Ship Positions

Eurika

Last reported at 2016-Apr-23 15:26 UTC. Time now 2016-May-01 21:19 UTC.
Position N 43°23' E 004°48'.
Warning: this ship's position is 8 days out of date.

Length 79 m; draft 3.2 m.

MMSI: 277335000.

Date/timePositionNaut miles runAvg speedWind from/ knotsBaromVisibWave heightAir tempDewpointWater temp
2016-Apr-23 15:26N 43°23' E 004°48'1 0.6
2016-Apr-23 13:33N 43°23' E 004°50'6 6.4
2016-Apr-23 12:33N 43°22' E 004°59'  
2016-Apr-20 12:33N 38°23' E 015°42'8 7.7
2016-Apr-20 11:33N 38°15' E 015°40'6 6.3
2016-Apr-20 10:33N 38°09' E 015°37'7 7.1
2016-Apr-20 09:33N 38°02' E 015°36'240 8.3
2016-Apr-19 04:32N 38°01' E 020°41'9 8.8
2016-Apr-19 03:27N 38°02' E 020°53'9 9.3
2016-Apr-19 02:32N 38°06' E 021°03'9 9.2
2016-Apr-19 01:33N 38°10' E 021°14'9 8.7
2016-Apr-19 00:32N 38°14' E 021°23'4 0.1
2016-Apr-17 12:28N 38°15' E 021°28'9 9.6
2016-Apr-17 11:33N 38°12' E 021°17'11 9.2
2016-Apr-17 10:24N 38°07' E 021°05'8 9.1
2016-Apr-17 09:33N 38°03' E 020°57'9 9.0
2016-Apr-17 08:33N 37°60' E 020°47'243 9.3
2016-Apr-16 06:21N 37°57' E 015°38'8 9.7
2016-Apr-16 05:33N 38°04' E 015°35'9 9.4
2016-Apr-16 04:33N 38°14' E 015°36'6 5.9
2016-Apr-16 03:33N 38°20' E 015°35'9 9.5
2016-Apr-16 02:33N 38°24' E 015°24'92 9.0
2016-Apr-15 16:25N 39°11' E 013°43'  

Dump ship's entire track history